createdAt,value
2022-09-16T00:01:14.434Z,13.57
2022-09-16T00:03:46.264Z,13.55
2022-09-16T00:06:22.545Z,13.54
2022-09-16T00:08:50.902Z,13.54
2022-09-16T00:11:19.219Z,13.53
2022-09-16T00:13:48.373Z,13.52
2022-09-16T00:16:22.827Z,13.51
2022-09-16T00:18:58.165Z,13.49
2022-09-16T00:21:27.339Z,13.47
2022-09-16T00:23:56.611Z,13.45
2022-09-16T00:26:24.437Z,13.44
2022-09-16T00:28:52.288Z,13.42
2022-09-16T00:31:20.083Z,13.40
2022-09-16T00:33:48.077Z,13.38
2022-09-16T00:36:19.771Z,13.37
2022-09-16T00:38:52.760Z,13.35
2022-09-16T00:41:25.397Z,13.34
2022-09-16T00:46:41.750Z,13.30
2022-09-16T00:49:20.238Z,13.27
2022-09-16T00:51:51.329Z,13.25
2022-09-16T00:54:20.268Z,13.23
2022-09-16T00:56:51.733Z,13.21
2022-09-16T00:59:27.804Z,13.19
2022-09-16T01:01:56.974Z,13.17
2022-09-16T01:04:29.479Z,13.15
2022-09-16T01:06:57.635Z,13.14
2022-09-16T01:09:26.932Z,13.12
2022-09-16T01:11:54.684Z,13.11
2022-09-16T01:14:42.635Z,13.10
2022-09-16T01:17:40.976Z,13.08
2022-09-16T01:20:31.705Z,13.07
2022-09-16T01:23:24.280Z,13.05
2022-09-16T01:26:30.117Z,13.02
2022-09-16T01:29:28.774Z,13.01
2022-09-16T01:32:15.031Z,12.98
2022-09-16T01:42:52.246Z,12.92
2022-09-16T01:45:28.614Z,12.91
2022-09-16T01:48:19.661Z,12.89
2022-09-16T01:51:06.563Z,12.87
2022-09-16T01:54:00.204Z,12.86
2022-09-16T01:56:44.405Z,12.83
2022-09-16T01:59:29.224Z,12.81
2022-09-16T02:02:14.696Z,12.79
2022-09-16T02:04:49.125Z,12.76
2022-09-16T02:07:20.656Z,12.73
2022-09-16T02:10:08.450Z,12.72
2022-09-16T02:12:41.498Z,12.68
2022-09-16T02:15:12.793Z,12.66
2022-09-16T02:17:45.418Z,12.65
2022-09-16T02:20:19.951Z,12.62
2022-09-16T02:22:52.498Z,12.60
2022-09-16T02:25:21.954Z,12.58
2022-09-16T02:27:52.236Z,12.56
2022-09-16T02:30:22.457Z,12.55
2022-09-16T02:32:57.192Z,12.52
2022-09-16T02:35:27.223Z,12.49
2022-09-16T02:38:07.461Z,12.48
2022-09-16T02:40:43.136Z,12.46
2022-09-16T02:43:11.196Z,12.44
2022-09-16T02:46:26.990Z,12.42
2022-09-16T02:49:28.443Z,12.40
2022-09-16T02:52:30.713Z,12.38
2022-09-16T02:55:18.266Z,12.37
2022-09-16T02:57:46.600Z,12.35
2022-09-16T03:00:14.494Z,12.34
2022-09-16T03:02:42.254Z,12.33
2022-09-16T03:05:09.967Z,12.31
2022-09-16T03:07:39.870Z,12.30
2022-09-16T03:10:11.081Z,12.29
2022-09-16T03:13:33.472Z,12.27
2022-09-16T03:16:13.503Z,12.26
2022-09-16T03:19:15.325Z,12.25
2022-09-16T03:22:27.947Z,12.24
2022-09-16T03:25:43.373Z,12.23
2022-09-16T03:28:39.893Z,12.22
2022-09-16T03:31:33.708Z,12.20
2022-09-16T03:34:34.723Z,12.19
2022-09-16T03:37:08.283Z,12.18
2022-09-16T03:39:36.690Z,12.18
2022-09-16T03:42:11.533Z,12.17
2022-09-16T03:44:41.067Z,12.16
2022-09-16T03:47:09.231Z,12.15
2022-09-16T03:49:37.296Z,12.14
2022-09-16T03:52:05.747Z,12.14
2022-09-16T04:02:22.108Z,12.11
2022-09-16T04:04:49.972Z,12.10
2022-09-16T04:07:17.838Z,12.09
2022-09-16T04:09:45.749Z,12.09
2022-09-16T04:12:14.428Z,12.08
2022-09-16T04:14:42.278Z,12.07
2022-09-16T04:17:10.022Z,12.06
2022-09-16T04:19:37.845Z,12.05
2022-09-16T04:22:05.654Z,12.03
2022-09-16T04:24:33.328Z,12.02
2022-09-16T04:27:00.994Z,12.01
2022-09-16T04:29:28.853Z,12.00
2022-09-16T04:31:56.649Z,12.00
2022-09-16T04:34:24.420Z,11.99
2022-09-16T04:36:52.181Z,11.99
2022-09-16T04:39:19.992Z,11.98
2022-09-16T04:41:47.797Z,11.97
2022-09-16T04:44:16.050Z,11.96
2022-09-16T04:46:43.892Z,11.95
2022-09-16T04:49:13.045Z,11.95
2022-09-16T04:51:40.803Z,11.95
2022-09-16T04:54:08.741Z,11.95
2022-09-16T04:56:36.609Z,11.96
2022-09-16T04:59:06.806Z,11.98
2022-09-16T05:01:38.757Z,12.00
2022-09-16T05:04:08.163Z,12.02
2022-09-16T05:06:40.680Z,12.06
2022-09-16T05:09:11.365Z,12.08
2022-09-16T05:11:41.240Z,12.10
2022-09-16T05:14:15.947Z,12.14
2022-09-16T05:16:45.487Z,12.17
2022-09-16T05:19:14.884Z,12.20
2022-09-16T05:21:43.921Z,12.23
2022-09-16T05:24:13.972Z,12.26
2022-09-16T05:26:43.447Z,12.30
2022-09-16T05:29:17.598Z,12.34
2022-09-16T05:31:49.206Z,12.39
2022-09-16T05:34:23.335Z,12.43
2022-09-16T05:36:54.082Z,12.46
2022-09-16T05:39:24.760Z,12.50
2022-09-16T05:41:58.359Z,12.53
2022-09-16T05:44:27.739Z,12.55
2022-09-16T05:46:56.135Z,12.57
2022-09-16T05:49:24.551Z,12.59
2022-09-16T05:51:54.024Z,12.61
2022-09-16T05:54:24.004Z,12.63
2022-09-16T05:56:51.810Z,12.65
2022-09-16T05:59:19.754Z,12.70
2022-09-16T06:01:47.730Z,12.74
2022-09-16T06:04:16.013Z,12.78
2022-09-16T06:06:46.170Z,12.81
2022-09-16T06:09:22.466Z,12.85
2022-09-16T06:11:58.069Z,12.89
2022-09-16T06:14:28.638Z,12.93
2022-09-16T06:16:56.698Z,12.97
2022-09-16T06:19:24.706Z,12.99
2022-09-16T06:21:52.412Z,13.01
2022-09-16T06:24:20.998Z,13.04
2022-09-16T06:26:49.887Z,13.08
2022-09-16T06:29:18.031Z,13.11
2022-09-16T06:31:46.031Z,13.14
2022-09-16T06:34:18.627Z,13.18
2022-09-16T06:36:47.873Z,13.20
2022-09-16T06:39:17.426Z,13.22
2022-09-16T06:41:49.603Z,13.26
2022-09-16T06:44:17.371Z,13.30
2022-09-16T06:46:45.025Z,13.35
2022-09-16T06:49:13.274Z,13.39
2022-09-16T06:51:41.852Z,13.44
2022-09-16T06:54:10.646Z,13.49
2022-09-16T06:56:41.257Z,13.54
2022-09-16T06:59:11.524Z,13.59
2022-09-16T07:01:39.417Z,13.66
2022-09-16T07:04:11.267Z,13.72
2022-09-16T07:09:27.420Z,13.90
2022-09-16T07:11:55.477Z,13.98
2022-09-16T07:14:23.572Z,14.06
2022-09-16T07:16:52.881Z,14.13
2022-09-16T07:19:21.025Z,14.19
2022-09-16T07:21:49.121Z,14.26
2022-09-16T07:24:17.177Z,14.30
2022-09-16T07:26:46.053Z,14.36
2022-09-16T07:29:18.264Z,14.40
2022-09-16T07:31:49.309Z,14.46
2022-09-16T07:34:18.561Z,14.53
2022-09-16T07:36:48.736Z,14.60
2022-09-16T07:39:51.775Z,14.68
2022-09-16T07:42:18.246Z,14.76
2022-09-16T07:44:45.408Z,14.84
2022-09-16T07:47:11.699Z,14.90
2022-09-16T07:49:38.050Z,14.97
2022-09-16T07:52:04.430Z,15.06
2022-09-16T07:54:31.428Z,15.14
2022-09-16T07:56:57.911Z,15.24
2022-09-16T07:59:24.255Z,15.33
2022-09-16T08:01:50.960Z,15.40
2022-09-16T08:04:19.667Z,15.48
2022-09-16T08:06:46.570Z,15.59
2022-09-16T08:12:04.009Z,15.84
2022-09-16T08:14:30.518Z,15.95
2022-09-16T08:16:57.228Z,16.03
2022-09-16T08:19:23.607Z,16.10
2022-09-16T08:21:50.747Z,16.18
2022-09-16T08:24:17.507Z,16.24
2022-09-16T08:26:44.089Z,16.34
2022-09-16T08:29:10.932Z,16.41
2022-09-16T08:31:38.304Z,16.45
2022-09-16T08:34:05.344Z,16.47
2022-09-16T08:36:34.684Z,16.52
2022-09-16T08:39:01.260Z,16.59
2022-09-16T08:42:07.960Z,16.70
2022-09-16T08:44:58.165Z,16.87
2022-09-16T08:48:02.613Z,16.98
2022-09-16T08:50:36.213Z,17.03
2022-09-16T08:53:09.769Z,17.02
2022-09-16T08:55:47.130Z,17.04
2022-09-16T08:58:26.245Z,17.14
2022-09-16T09:01:00.940Z,17.21
2022-09-16T09:03:39.328Z,17.19
2022-09-16T09:06:26.267Z,17.24
2022-09-16T09:09:08.059Z,17.40
2022-09-16T09:11:57.389Z,17.54
2022-09-16T09:15:08.315Z,17.77
2022-09-16T09:17:52.070Z,18.09
2022-09-16T09:20:24.745Z,18.22
2022-09-16T09:23:08.276Z,18.19
2022-09-16T09:25:47.049Z,18.14
2022-09-16T09:28:48.676Z,18.04
2022-09-16T09:31:52.216Z,17.90
2022-09-16T09:34:34.977Z,17.75
2022-09-16T09:37:35.932Z,17.67
2022-09-16T09:40:23.696Z,17.78
2022-09-16T09:43:23.199Z,17.96
2022-09-16T09:46:03.664Z,18.08
2022-09-16T09:48:56.752Z,18.10
2022-09-16T09:51:38.644Z,18.05
2022-09-16T09:54:27.780Z,18.00
2022-09-16T09:57:01.040Z,18.00
2022-09-16T10:00:25.619Z,17.95
2022-09-16T10:03:03.412Z,17.79
2022-09-16T10:05:31.021Z,17.65
2022-09-16T10:08:18.296Z,17.50
2022-09-16T10:10:59.104Z,17.34
2022-09-16T10:13:34.857Z,17.22
2022-09-16T10:16:17.345Z,17.22
2022-09-16T10:18:44.854Z,17.44
2022-09-16T10:21:15.554Z,17.73
2022-09-16T10:24:05.355Z,18.03
2022-09-16T10:26:40.625Z,18.23
2022-09-16T10:29:19.433Z,18.29
2022-09-16T10:31:47.728Z,18.28
2022-09-16T10:34:32.266Z,18.21
2022-09-16T10:37:27.542Z,18.10
2022-09-16T10:39:56.837Z,17.98
2022-09-16T10:42:55.285Z,17.89
2022-09-16T10:45:28.019Z,17.78
2022-09-16T10:48:04.909Z,17.67
2022-09-16T10:50:34.184Z,17.56
2022-09-16T10:53:01.047Z,17.48
2022-09-16T10:55:38.298Z,17.38
2022-09-16T10:58:17.719Z,17.29
2022-09-16T11:01:13.890Z,17.27
2022-09-16T11:04:30.598Z,17.42
2022-09-16T11:07:12.397Z,17.63
2022-09-16T11:10:10.186Z,17.71
2022-09-16T11:13:12.602Z,17.74
2022-09-16T11:16:00.833Z,17.74
2022-09-16T11:19:04.982Z,17.71
2022-09-16T11:21:46.595Z,17.65
2022-09-16T11:24:29.878Z,17.58
2022-09-16T11:27:19.712Z,17.52
2022-09-16T11:29:56.157Z,17.49
2022-09-16T11:32:46.825Z,17.45
2022-09-16T11:35:33.092Z,17.40
2022-09-16T11:38:41.173Z,17.36
2022-09-16T11:41:24.035Z,17.35
2022-09-16T11:44:04.762Z,17.34
2022-09-16T11:46:55.223Z,17.37
2022-09-16T11:49:53.149Z,17.46
2022-09-16T11:52:51.867Z,17.53
2022-09-16T11:55:41.927Z,17.59
2022-09-16T11:58:18.399Z,17.60
2022-09-16T12:00:46.587Z,17.58
2022-09-16T12:03:19.794Z,17.52
2022-09-16T12:05:53.081Z,17.47
2022-09-16T12:08:58.768Z,17.40
2022-09-16T12:11:45.517Z,17.38
2022-09-16T12:14:31.398Z,17.45
2022-09-16T12:17:19.897Z,17.65
2022-09-16T12:20:08.245Z,17.86
2022-09-16T12:22:41.529Z,18.06
2022-09-16T12:25:46.065Z,18.25
2022-09-16T12:28:24.025Z,18.48
2022-09-16T12:31:04.249Z,18.68
2022-09-16T12:33:36.322Z,18.82
2022-09-16T12:36:10.603Z,18.88
2022-09-16T12:38:37.607Z,18.92
2022-09-16T12:41:26.265Z,19.01
2022-09-16T12:44:30.429Z,19.16
2022-09-16T12:47:46.042Z,19.31
2022-09-16T12:50:56.337Z,19.46
2022-09-16T12:53:37.042Z,19.57
2022-09-16T12:56:22.328Z,19.59
2022-09-16T12:59:00.727Z,19.63
2022-09-16T13:02:02.329Z,19.66
2022-09-16T13:04:53.088Z,19.69
2022-09-16T13:07:26.580Z,19.72
2022-09-16T13:10:13.756Z,19.74
2022-09-16T13:12:43.893Z,19.73
2022-09-16T13:15:35.267Z,19.70
2022-09-16T13:18:22.665Z,19.62
2022-09-16T13:21:30.258Z,19.50
2022-09-16T13:24:20.173Z,19.34
2022-09-16T13:26:46.618Z,19.24
2022-09-16T13:29:43.507Z,19.19
2022-09-16T13:32:43.899Z,19.20
2022-09-16T13:35:19.681Z,19.23
2022-09-16T13:37:51.457Z,19.22
2022-09-16T13:40:30.406Z,19.18
2022-09-16T13:43:31.455Z,19.12
2022-09-16T13:46:06.479Z,19.07
2022-09-16T13:48:39.814Z,19.04
2022-09-16T13:51:12.975Z,18.99
2022-09-16T13:53:45.946Z,18.90
2022-09-16T13:56:48.087Z,18.76
2022-09-16T13:59:38.471Z,18.54
2022-09-16T14:02:35.687Z,18.32
2022-09-16T14:05:24.012Z,18.10
2022-09-16T14:08:32.033Z,17.88
2022-09-16T14:11:18.484Z,17.66
2022-09-16T14:14:04.809Z,17.45
2022-09-16T14:16:34.457Z,17.25
2022-09-16T14:19:36.274Z,17.07
2022-09-16T14:25:56.055Z,16.50
2022-09-16T14:28:29.349Z,16.20
2022-09-16T14:31:00.490Z,15.99
2022-09-16T14:33:44.223Z,15.85
2022-09-16T14:36:20.135Z,15.74
2022-09-16T14:38:54.556Z,15.63
2022-09-16T14:41:37.978Z,15.56
2022-09-16T14:44:18.442Z,15.51
2022-09-16T14:47:04.715Z,15.50
2022-09-16T14:49:37.391Z,15.50
2022-09-16T14:52:04.336Z,15.50
2022-09-16T14:54:31.277Z,15.50
2022-09-16T14:57:02.523Z,15.50
2022-09-16T14:59:37.249Z,15.51
2022-09-16T15:02:18.066Z,15.53
2022-09-16T15:04:47.810Z,15.55
2022-09-16T15:07:21.334Z,15.57
2022-09-16T15:09:50.105Z,15.61
2022-09-16T15:12:26.578Z,15.64
2022-09-16T15:14:53.638Z,15.67
2022-09-16T15:17:22.716Z,15.71
2022-09-16T15:19:58.769Z,15.74
2022-09-16T15:22:29.012Z,15.77
2022-09-16T15:25:41.071Z,15.80
2022-09-16T15:28:17.588Z,15.84
2022-09-16T15:31:07.706Z,15.87
2022-09-16T15:33:41.528Z,15.90
2022-09-16T15:36:44.116Z,15.92
2022-09-16T15:39:42.733Z,15.96
2022-09-16T15:42:17.485Z,15.98
2022-09-16T15:44:51.921Z,16.00
2022-09-16T15:47:25.115Z,16.02
2022-09-16T15:50:21.703Z,16.03
2022-09-16T15:53:06.412Z,16.06
2022-09-16T15:55:57.374Z,16.08
2022-09-16T15:58:57.816Z,16.08
2022-09-16T16:01:31.461Z,16.08
2022-09-16T16:04:02.592Z,16.08
2022-09-16T16:06:54.471Z,16.08
2022-09-16T16:09:28.307Z,16.06
2022-09-16T16:11:55.640Z,16.05
2022-09-16T16:14:24.228Z,16.04
2022-09-16T16:17:11.715Z,16.02
2022-09-16T16:19:44.816Z,15.99
2022-09-16T16:22:26.538Z,15.97
2022-09-16T16:24:56.045Z,15.94
2022-09-16T16:27:25.926Z,15.90
2022-09-16T16:29:53.886Z,15.87
2022-09-16T16:32:25.228Z,15.83
2022-09-16T16:34:58.930Z,15.78
2022-09-16T16:38:22.002Z,15.73
2022-09-16T16:40:52.026Z,15.68
2022-09-16T16:43:18.911Z,15.62
2022-09-16T16:45:56.419Z,15.57
2022-09-16T16:48:29.826Z,15.54
2022-09-16T16:51:21.911Z,15.59
2022-09-16T16:54:09.696Z,15.62
2022-09-16T16:56:47.645Z,15.63
2022-09-16T16:59:15.169Z,15.63
2022-09-16T17:05:06.522Z,15.57
2022-09-16T17:08:10.538Z,15.53
2022-09-16T17:11:15.282Z,15.44
2022-09-16T17:13:52.254Z,15.25
2022-09-16T17:16:26.739Z,15.11
2022-09-16T17:18:55.171Z,14.98
2022-09-16T17:22:14.367Z,14.87
2022-09-16T17:24:42.811Z,14.73
2022-09-16T17:31:38.837Z,14.51
2022-09-16T17:34:14.506Z,14.42
2022-09-16T17:36:45.777Z,14.34
2022-09-16T17:39:22.318Z,14.27
2022-09-16T17:41:49.659Z,14.28
2022-09-16T17:44:20.520Z,14.31
2022-09-16T17:46:48.152Z,14.33
2022-09-16T17:49:23.080Z,14.33
2022-09-16T17:51:51.479Z,14.33
2022-09-16T17:54:18.552Z,14.32
2022-09-16T17:56:45.286Z,14.31
2022-09-16T17:59:15.059Z,14.29
2022-09-16T18:01:41.593Z,14.27
2022-09-16T18:04:08.271Z,14.25
2022-09-16T18:06:44.510Z,14.23
2022-09-16T18:09:16.018Z,14.20
2022-09-16T18:11:42.762Z,14.18
2022-09-16T18:14:12.384Z,14.16
2022-09-16T18:16:40.340Z,14.13
2022-09-16T18:19:07.325Z,14.11
2022-09-16T18:21:36.564Z,14.08
2022-09-16T18:24:04.753Z,14.05
2022-09-16T18:26:31.754Z,14.03
2022-09-16T18:29:16.645Z,14.00
2022-09-16T18:31:46.690Z,13.96
2022-09-16T18:34:14.731Z,13.93
2022-09-16T18:36:41.699Z,13.90
2022-09-16T18:39:14.037Z,13.88
2022-09-16T18:41:44.395Z,13.85
2022-09-16T18:44:24.949Z,13.82
2022-09-16T18:46:53.012Z,13.80
2022-09-16T18:49:25.958Z,13.77
2022-09-16T18:52:14.456Z,13.75
2022-09-16T18:54:45.563Z,13.72
2022-09-16T18:57:24.804Z,13.70
2022-09-16T18:59:51.752Z,13.68
2022-09-16T19:02:19.385Z,13.66
2022-09-16T19:04:47.032Z,13.64
2022-09-16T19:07:17.733Z,13.62
2022-09-16T19:09:46.005Z,13.61
2022-09-16T19:12:13.105Z,13.58
2022-09-16T19:14:41.224Z,13.57
2022-09-16T19:17:09.367Z,13.55
2022-09-16T19:19:36.398Z,13.53
2022-09-16T19:22:05.903Z,13.52
2022-09-16T19:24:33.964Z,13.49
2022-09-16T19:27:01.679Z,13.47
2022-09-16T19:29:32.712Z,13.46
2022-09-16T19:32:00.526Z,13.45
2022-09-16T19:34:29.507Z,13.44
2022-09-16T19:36:56.511Z,13.42
2022-09-16T19:39:29.105Z,13.40
2022-09-16T19:41:56.475Z,13.38
2022-09-16T19:44:23.687Z,13.37
2022-09-16T19:46:56.334Z,13.35
2022-09-16T19:49:23.515Z,13.33
2022-09-16T19:51:52.845Z,13.32
2022-09-16T19:54:26.947Z,13.31
2022-09-16T19:56:54.545Z,13.29
2022-09-16T19:59:27.175Z,13.27
2022-09-16T20:02:17.736Z,13.25
2022-09-16T20:04:54.046Z,13.22
2022-09-16T20:07:34.616Z,13.20
2022-09-16T20:10:02.178Z,13.17
2022-09-16T20:12:33.447Z,13.15
2022-09-16T20:15:04.557Z,13.12
2022-09-16T20:17:31.398Z,13.10
2022-09-16T20:20:09.712Z,13.08
2022-09-16T20:22:37.816Z,13.06
2022-09-16T20:25:22.447Z,13.03
2022-09-16T20:27:51.937Z,13.01
2022-09-16T20:30:19.546Z,12.99
2022-09-16T20:32:46.585Z,12.97
2022-09-16T20:35:17.402Z,12.96
2022-09-16T20:37:49.169Z,12.93
2022-09-16T20:40:19.148Z,12.92
2022-09-16T20:42:47.802Z,12.91
2022-09-16T20:45:15.627Z,12.89
2022-09-16T20:47:43.579Z,12.87
2022-09-16T20:50:11.154Z,12.86
2022-09-16T20:52:38.500Z,12.84
2022-09-16T20:55:07.693Z,12.83
2022-09-16T20:57:35.341Z,12.82
2022-09-16T21:00:04.013Z,12.80
2022-09-16T21:02:35.770Z,12.77
2022-09-16T21:05:06.666Z,12.77
2022-09-16T21:07:34.233Z,12.75
2022-09-16T21:10:01.595Z,12.73
2022-09-16T21:12:30.805Z,12.71
2022-09-16T21:14:58.167Z,12.70
2022-09-16T21:17:25.294Z,12.70
2022-09-16T21:19:54.679Z,12.70
2022-09-16T21:22:22.170Z,12.69
2022-09-16T21:24:48.914Z,12.69
2022-09-16T21:27:16.269Z,12.69
2022-09-16T21:29:43.483Z,12.68
2022-09-16T21:32:11.023Z,12.68
2022-09-16T21:34:39.365Z,12.68
2022-09-16T21:37:09.758Z,12.69
2022-09-16T21:39:38.032Z,12.70
2022-09-16T21:42:04.893Z,12.71
2022-09-16T21:44:33.241Z,12.71
2022-09-16T21:47:01.055Z,12.71
2022-09-16T21:49:29.877Z,12.70
2022-09-16T21:51:59.382Z,12.69
2022-09-16T21:54:28.014Z,12.69
2022-09-16T21:56:54.534Z,12.69
2022-09-16T21:59:52.830Z,12.68
2022-09-16T22:02:35.490Z,12.67
2022-09-16T22:05:07.971Z,12.67
2022-09-16T22:07:41.565Z,12.66
2022-09-16T22:13:30.172Z,12.63
2022-09-16T22:15:58.369Z,12.62
2022-09-16T22:18:27.644Z,12.61
2022-09-16T22:20:57.413Z,12.60
2022-09-16T22:23:23.949Z,12.58
2022-09-16T22:25:50.447Z,12.57
2022-09-16T22:28:17.032Z,12.56
2022-09-16T22:30:43.674Z,12.53
2022-09-16T22:33:10.878Z,12.51
2022-09-16T22:35:37.639Z,12.49
2022-09-16T22:38:04.179Z,12.47
2022-09-16T22:40:31.400Z,12.44
2022-09-16T22:42:58.307Z,12.41
2022-09-16T22:45:25.007Z,12.40
2022-09-16T22:47:51.667Z,12.38
2022-09-16T22:50:18.009Z,12.36
2022-09-16T22:52:44.873Z,12.34
2022-09-16T22:55:11.321Z,12.32
2022-09-16T22:57:37.831Z,12.30
2022-09-16T23:00:05.132Z,12.27
2022-09-16T23:02:31.609Z,12.25
2022-09-16T23:04:57.993Z,12.22
2022-09-16T23:07:24.359Z,12.20
2022-09-16T23:09:50.687Z,12.17
2022-09-16T23:12:17.241Z,12.14
2022-09-16T23:14:44.145Z,12.10
2022-09-16T23:17:10.610Z,12.08
2022-09-16T23:19:37.206Z,12.05
2022-09-16T23:22:03.539Z,12.02
2022-09-16T23:24:30.055Z,11.99
2022-09-16T23:26:56.475Z,11.97
2022-09-16T23:29:22.894Z,11.94
2022-09-16T23:31:49.271Z,11.93
2022-09-16T23:34:20.764Z,11.91
2022-09-16T23:36:48.381Z,11.90
2022-09-16T23:39:15.938Z,11.88
2022-09-16T23:41:43.184Z,11.87
2022-09-16T23:44:12.911Z,11.86
2022-09-16T23:46:39.372Z,11.84
2022-09-16T23:49:08.692Z,11.84
2022-09-16T23:51:35.870Z,11.82
2022-09-16T23:54:04.047Z,11.81
2022-09-16T23:56:32.079Z,11.80
2022-09-16T23:58:59.995Z,11.79
